createdAt,value
2022-12-13T00:00:10.503Z,-6.10
2022-12-13T00:02:38.998Z,-6.10
2022-12-13T00:05:10.323Z,-6.10
2022-12-13T00:07:39.144Z,-6.30
2022-12-13T00:10:08.783Z,-6.30
2022-12-13T00:12:37.714Z,-6.30
2022-12-13T00:15:07.693Z,-6.40
2022-12-13T00:17:36.034Z,-6.50
2022-12-13T00:20:05.514Z,-6.40
2022-12-13T00:22:35.250Z,-6.60
2022-12-13T00:25:03.640Z,-6.70
2022-12-13T00:27:32.241Z,-6.80
2022-12-13T00:30:00.976Z,-6.70
2022-12-13T00:32:29.454Z,-6.90
2022-12-13T00:34:58.041Z,-7.00
2022-12-13T00:37:26.283Z,-7.00
2022-12-13T00:39:58.712Z,-7.00
2022-12-13T00:42:27.131Z,-7.00
2022-12-13T00:44:56.006Z,-7.00
2022-12-13T00:47:25.308Z,-7.00
2022-12-13T00:49:53.815Z,-7.10
2022-12-13T00:52:22.143Z,-7.10
2022-12-13T00:54:50.885Z,-7.10
2022-12-13T00:57:21.285Z,-7.00
2022-12-13T00:59:50.304Z,-7.00
2022-12-13T01:02:18.886Z,-7.10
2022-12-13T01:04:47.712Z,-7.10
2022-12-13T01:07:16.019Z,-7.10
2022-12-13T01:09:45.152Z,-7.20
2022-12-13T01:12:13.502Z,-7.20
2022-12-13T01:14:44.027Z,-7.20
2022-12-13T01:17:12.891Z,-7.10
2022-12-13T01:19:41.520Z,-7.20
2022-12-13T01:22:11.716Z,-6.60
2022-12-13T01:24:40.144Z,-7.30
2022-12-13T01:27:08.724Z,-7.30
2022-12-13T01:29:37.459Z,-7.30
2022-12-13T01:32:07.681Z,-7.40
2022-12-13T01:34:36.165Z,-7.50
2022-12-13T01:37:04.553Z,-7.50
2022-12-13T01:39:38.216Z,-7.50
2022-12-13T01:42:06.902Z,-7.60
2022-12-13T01:45:04.035Z,-7.70
2022-12-13T01:47:40.312Z,-7.70
2022-12-13T01:50:15.463Z,-7.70
2022-12-13T01:52:45.295Z,-7.60
2022-12-13T01:55:15.996Z,-7.80
2022-12-13T01:57:46.873Z,-7.70
2022-12-13T02:00:17.242Z,-7.70
2022-12-13T02:02:49.940Z,-7.60
2022-12-13T02:05:24.942Z,-7.60
2022-12-13T02:07:54.361Z,-7.60
2022-12-13T02:10:23.023Z,-7.50
2022-12-13T02:12:52.261Z,-6.20
2022-12-13T02:15:21.800Z,-7.30
2022-12-13T02:18:15.975Z,-7.10
2022-12-13T02:21:14.564Z,-7.40
2022-12-13T02:24:19.909Z,-7.50
2022-12-13T02:27:02.979Z,-7.60
2022-12-13T02:30:17.156Z,-7.80
2022-12-13T02:33:13.774Z,-7.90
2022-12-13T02:36:02.951Z,-8.00
2022-12-13T02:38:40.937Z,-8.10
2022-12-13T02:41:18.572Z,-7.90
2022-12-13T02:44:01.111Z,-7.90
2022-12-13T02:46:34.606Z,-7.80
2022-12-13T02:49:06.567Z,-7.40
2022-12-13T02:51:36.397Z,-7.80
2022-12-13T02:54:05.197Z,-7.80
2022-12-13T02:56:33.595Z,-7.80
2022-12-13T02:59:12.461Z,-7.80
2022-12-13T03:02:09.692Z,-7.20
2022-12-13T03:05:07.317Z,-7.70
2022-12-13T03:07:48.728Z,-7.70
2022-12-13T03:10:23.198Z,-7.60
2022-12-13T03:13:16.436Z,-7.50
2022-12-13T03:15:50.559Z,-7.40
2022-12-13T03:18:21.670Z,-7.40
2022-12-13T03:20:54.859Z,-7.30
2022-12-13T03:23:23.803Z,-7.20
2022-12-13T03:25:56.980Z,-7.20
2022-12-13T03:28:25.905Z,-7.30
2022-12-13T03:30:54.265Z,-7.30
2022-12-13T03:33:22.701Z,-7.30
2022-12-13T03:35:52.969Z,-7.30
2022-12-13T03:38:23.438Z,-7.40
2022-12-13T03:40:57.298Z,-7.40
2022-12-13T03:43:26.313Z,-7.20
2022-12-13T03:45:56.147Z,-7.60
2022-12-13T03:48:24.889Z,-7.20
2022-12-13T03:50:55.753Z,-7.70
2022-12-13T03:53:33.035Z,-7.70
2022-12-13T03:56:04.450Z,-7.80
2022-12-13T03:58:36.931Z,-7.90
2022-12-13T04:01:08.838Z,-7.80
2022-12-13T04:03:39.356Z,-7.90
2022-12-13T04:06:10.676Z,-7.90
2022-12-13T04:08:41.052Z,-8.00
2022-12-13T04:11:27.822Z,-8.00
2022-12-13T04:13:58.550Z,-8.10
2022-12-13T04:16:27.790Z,-8.10
2022-12-13T04:18:56.222Z,-8.20
2022-12-13T04:21:26.494Z,-8.10
2022-12-13T04:23:55.239Z,-8.20
2022-12-13T04:26:29.275Z,-8.20
2022-12-13T04:28:57.759Z,-8.20
2022-12-13T04:31:26.269Z,-8.30
2022-12-13T04:33:54.643Z,-8.30
2022-12-13T04:36:31.856Z,-8.30
2022-12-13T04:39:03.174Z,-8.40
2022-12-13T04:41:38.088Z,-8.30
2022-12-13T04:44:27.651Z,-8.40
2022-12-13T04:47:00.702Z,-8.30
2022-12-13T04:49:31.090Z,-8.40
2022-12-13T04:52:01.586Z,-8.40
2022-12-13T04:54:36.501Z,-8.30
2022-12-13T04:57:09.392Z,-8.40
2022-12-13T04:59:38.727Z,-8.40
2022-12-13T05:02:09.554Z,-8.40
2022-12-13T05:04:39.110Z,-8.40
2022-12-13T05:07:07.828Z,-8.40
2022-12-13T05:09:37.876Z,-8.40
2022-12-13T05:12:13.027Z,-8.30
2022-12-13T05:14:51.672Z,-8.30
2022-12-13T05:17:20.947Z,-7.90
2022-12-13T05:19:49.426Z,-7.90
2022-12-13T05:22:20.625Z,-7.90
2022-12-13T05:24:51.837Z,-7.90
2022-12-13T05:27:23.827Z,-7.80
2022-12-13T05:30:03.135Z,-7.80
2022-12-13T05:32:49.748Z,-7.70
2022-12-13T05:35:33.597Z,-7.70
2022-12-13T05:38:02.159Z,-7.60
2022-12-13T05:40:33.804Z,-7.70
2022-12-13T05:43:02.257Z,-7.80
2022-12-13T05:45:31.784Z,-7.90
2022-12-13T05:48:01.569Z,-7.90
2022-12-13T05:50:30.454Z,-7.80
2022-12-13T05:52:58.766Z,-7.90
2022-12-13T05:55:27.633Z,-8.10
2022-12-13T05:58:02.457Z,-8.10
2022-12-13T06:00:32.362Z,-8.10
2022-12-13T06:03:02.233Z,-8.10
2022-12-13T06:05:31.558Z,-8.20
2022-12-13T06:08:24.878Z,-8.10
2022-12-13T06:11:11.657Z,-8.20
2022-12-13T06:13:43.779Z,-8.20
2022-12-13T06:16:23.319Z,-8.20
2022-12-13T06:19:02.831Z,-8.20
2022-12-13T06:21:40.803Z,-8.20
2022-12-13T06:24:16.103Z,-8.20
2022-12-13T06:26:45.933Z,-8.20
2022-12-13T06:29:23.552Z,-7.70
2022-12-13T06:32:00.890Z,-8.20
2022-12-13T06:34:36.178Z,-8.20
2022-12-13T06:37:06.945Z,-8.10
2022-12-13T06:39:35.824Z,-8.10
2022-12-13T06:42:06.650Z,-8.10
2022-12-13T06:44:36.679Z,-8.00
2022-12-13T06:47:10.418Z,-8.10
2022-12-13T06:49:42.643Z,-8.00
2022-12-13T06:52:18.066Z,-8.10
2022-12-13T06:54:46.362Z,-8.00
2022-12-13T06:57:15.019Z,-8.00
2022-12-13T06:59:46.046Z,-8.00
2022-12-13T07:02:24.879Z,-8.00
2022-12-13T07:04:56.477Z,-7.90
2022-12-13T07:07:26.155Z,-7.90
2022-12-13T07:09:55.433Z,-7.80
2022-12-13T07:12:24.391Z,-7.80
2022-12-13T07:14:56.028Z,-7.70
2022-12-13T07:17:32.660Z,-7.60
2022-12-13T07:20:07.897Z,-7.60
2022-12-13T07:22:45.201Z,-7.50
2022-12-13T07:25:28.116Z,-7.50
2022-12-13T07:28:01.135Z,-7.50
2022-12-13T07:30:33.685Z,-7.40
2022-12-13T07:33:03.359Z,-7.40
2022-12-13T07:35:36.929Z,-7.30
2022-12-13T07:38:06.265Z,-7.20
2022-12-13T07:40:35.502Z,-7.20
2022-12-13T07:43:05.885Z,-7.10
2022-12-13T07:45:36.005Z,-7.00
2022-12-13T07:48:09.391Z,-6.90
2022-12-13T07:50:38.178Z,-6.90
2022-12-13T07:53:07.801Z,-6.80
2022-12-13T07:55:37.749Z,-6.80
2022-12-13T07:58:08.353Z,-6.70
2022-12-13T08:00:38.510Z,-6.60
2022-12-13T08:03:07.694Z,-6.50
2022-12-13T08:05:38.561Z,-6.40
2022-12-13T08:08:10.166Z,-6.30
2022-12-13T08:10:39.127Z,-6.30
2022-12-13T08:13:07.768Z,-6.20
2022-12-13T08:15:37.612Z,-6.10
2022-12-13T08:18:06.485Z,-6.10
2022-12-13T08:20:34.798Z,-6.00
2022-12-13T08:23:03.442Z,-5.90
2022-12-13T08:25:32.127Z,-5.80
2022-12-13T08:28:02.874Z,-5.80
2022-12-13T08:30:33.728Z,-5.80
2022-12-13T08:33:04.872Z,-5.60
2022-12-13T08:35:34.985Z,-5.70
2022-12-13T08:38:04.486Z,-5.60
2022-12-13T08:40:33.244Z,-5.50
2022-12-13T08:43:02.025Z,-5.40
2022-12-13T08:45:31.609Z,-5.20
2022-12-13T08:48:00.710Z,-5.20
2022-12-13T08:50:31.825Z,-5.20
2022-12-13T08:53:00.344Z,-5.10
2022-12-13T08:55:31.407Z,-5.00
2022-12-13T08:58:07.017Z,-5.00
2022-12-13T09:00:36.497Z,-5.00
2022-12-13T09:03:05.910Z,-4.90
2022-12-13T09:05:40.585Z,-4.70
2022-12-13T09:08:22.997Z,-4.50
2022-12-13T09:11:00.462Z,-4.30
2022-12-13T09:13:32.072Z,-4.30
2022-12-13T09:16:13.857Z,-4.30
2022-12-13T09:18:43.175Z,-4.20
2022-12-13T09:21:22.120Z,-4.20
2022-12-13T09:24:01.962Z,-4.30
2022-12-13T09:26:38.130Z,-4.20
2022-12-13T09:29:10.651Z,-4.10
2022-12-13T09:31:40.618Z,-4.10
2022-12-13T09:34:10.148Z,-3.80
2022-12-13T09:36:40.102Z,-4.00
2022-12-13T09:39:08.382Z,-3.90
2022-12-13T09:41:41.340Z,-3.60
2022-12-13T09:44:32.925Z,-3.70
2022-12-13T09:47:23.002Z,-3.40
2022-12-13T09:49:53.887Z,-3.60
2022-12-13T09:52:26.386Z,-3.50
2022-12-13T09:55:05.496Z,-3.40
2022-12-13T09:57:38.278Z,-3.40
2022-12-13T10:00:12.866Z,-3.20
2022-12-13T10:02:47.303Z,-3.10
2022-12-13T10:05:34.420Z,-3.20
2022-12-13T10:08:14.255Z,-3.30
2022-12-13T10:10:44.343Z,-3.20
2022-12-13T10:13:21.798Z,-3.00
2022-12-13T10:16:00.450Z,-3.10
2022-12-13T10:18:36.941Z,-3.20
2022-12-13T10:21:11.173Z,-3.20
2022-12-13T10:24:15.075Z,-3.10
2022-12-13T10:26:37.876Z,-3.00
2022-12-13T10:29:07.837Z,-3.20
2022-12-13T10:31:42.471Z,-3.10
2022-12-13T10:34:23.498Z,-3.00
2022-12-13T10:36:52.478Z,-3.00
2022-12-13T10:39:41.237Z,-2.80
2022-12-13T10:42:22.795Z,-2.60
2022-12-13T10:45:14.689Z,-2.40
2022-12-13T10:47:45.411Z,-2.30
2022-12-13T10:50:26.240Z,-2.30
2022-12-13T10:52:55.865Z,-2.60
2022-12-13T10:55:30.238Z,-2.40
2022-12-13T10:58:01.699Z,-2.30
2022-12-13T11:00:39.188Z,-2.20
2022-12-13T11:03:08.960Z,-2.00
2022-12-13T11:05:40.599Z,-2.00
2022-12-13T11:08:22.199Z,-1.90
2022-12-13T11:11:00.910Z,-2.20
2022-12-13T11:13:38.497Z,-2.10
2022-12-13T11:16:23.434Z,-2.20
2022-12-13T11:18:55.711Z,-2.30
2022-12-13T11:21:28.316Z,-2.30
2022-12-13T11:24:01.881Z,-2.20
2022-12-13T11:26:36.828Z,-2.50
2022-12-13T11:29:30.416Z,-2.50
2022-12-13T11:32:07.785Z,-2.40
2022-12-13T11:34:47.294Z,-2.20
2022-12-13T11:37:27.555Z,-2.40
2022-12-13T11:40:01.123Z,-2.10
2022-12-13T11:42:36.973Z,-2.10
2022-12-13T11:45:22.631Z,-2.10
2022-12-13T11:48:02.836Z,-2.30
2022-12-13T11:50:37.314Z,-2.10
2022-12-13T11:53:29.116Z,-2.20
2022-12-13T11:56:06.917Z,-2.10
2022-12-13T11:59:02.563Z,-1.90
2022-12-13T12:01:38.212Z,-1.90
2022-12-13T12:04:17.828Z,-2.10
2022-12-13T12:06:52.670Z,-2.00
2022-12-13T12:09:25.296Z,-1.90
2022-12-13T12:12:02.090Z,-2.00
2022-12-13T12:14:42.884Z,-2.10
2022-12-13T12:17:16.297Z,-2.10
2022-12-13T12:19:48.569Z,-2.20
2022-12-13T12:22:31.869Z,-1.90
2022-12-13T12:25:18.194Z,-1.30
2022-12-13T12:27:57.250Z,-1.60
2022-12-13T12:30:34.569Z,-2.00
2022-12-13T12:33:17.081Z,-2.10
2022-12-13T12:36:11.038Z,-1.70
2022-12-13T12:39:05.538Z,-1.90
2022-12-13T12:41:48.863Z,-1.70
2022-12-13T12:44:33.703Z,-1.90
2022-12-13T12:47:54.564Z,-1.90
2022-12-13T12:50:31.852Z,-1.90
2022-12-13T12:53:27.253Z,-2.00
2022-12-13T12:56:10.481Z,-2.00
2022-12-13T12:58:45.601Z,-1.90
2022-12-13T13:01:36.145Z,-1.70
2022-12-13T13:04:22.116Z,-1.90
2022-12-13T13:07:01.701Z,-2.10
2022-12-13T13:09:31.522Z,-2.20
2022-12-13T13:12:28.592Z,-2.10
2022-12-13T13:14:52.637Z,-1.90
2022-12-13T13:17:47.409Z,-1.90
2022-12-13T13:20:30.980Z,-1.80
2022-12-13T13:23:31.912Z,-1.80
2022-12-13T13:28:45.323Z,-1.80
2022-12-13T13:31:14.065Z,-1.80
2022-12-13T13:33:48.161Z,-1.80
2022-12-13T13:36:47.772Z,-1.80
2022-12-13T13:39:19.290Z,-2.00
2022-12-13T13:42:19.278Z,-1.90
2022-12-13T13:45:19.579Z,-2.00
2022-12-13T13:48:22.871Z,-2.20
2022-12-13T13:55:21.326Z,-2.20
2022-12-13T13:58:51.361Z,-2.20
2022-12-13T14:02:19.097Z,-2.10
2022-12-13T14:05:41.746Z,-2.20
2022-12-13T14:08:30.245Z,-2.20
2022-12-13T14:11:42.730Z,-2.30
2022-12-13T14:15:16.191Z,-2.30
2022-12-13T14:18:44.592Z,-2.40
2022-12-13T14:21:46.672Z,-2.40
2022-12-13T14:24:29.606Z,-2.40
2022-12-13T14:27:14.029Z,-2.30
2022-12-13T14:29:48.821Z,-2.20
2022-12-13T14:32:29.054Z,-2.30
2022-12-13T14:34:58.324Z,-2.20
2022-12-13T14:37:32.833Z,-2.10
2022-12-13T14:40:05.389Z,-2.00
2022-12-13T14:42:35.768Z,-2.20
2022-12-13T14:45:17.581Z,-2.30
2022-12-13T14:47:46.403Z,-2.30
2022-12-13T14:50:19.149Z,-2.30
2022-12-13T14:52:49.891Z,-2.30
2022-12-13T14:55:28.713Z,-2.30
2022-12-13T14:57:59.747Z,-2.30
2022-12-13T15:00:31.867Z,-2.30
2022-12-13T15:03:03.152Z,-2.30
2022-12-13T15:05:57.412Z,-2.40
2022-12-13T15:08:26.182Z,-2.30
2022-12-13T15:10:58.129Z,-2.40
2022-12-13T15:13:33.808Z,-2.50
2022-12-13T15:16:10.217Z,-2.50
2022-12-13T15:18:39.343Z,-2.50
2022-12-13T15:21:22.903Z,-2.60
2022-12-13T15:23:52.848Z,-2.60
2022-12-13T15:26:28.509Z,-2.60
2022-12-13T15:29:00.887Z,-2.20
2022-12-13T15:31:29.810Z,-2.60
2022-12-13T15:34:34.287Z,-2.60
2022-12-13T15:37:06.619Z,-2.60
2022-12-13T15:39:41.049Z,-2.60
2022-12-13T15:42:24.334Z,-2.60
2022-12-13T15:44:57.056Z,-2.60
2022-12-13T15:47:28.280Z,-2.70
2022-12-13T15:50:04.928Z,-2.70
2022-12-13T15:52:37.571Z,-2.70
2022-12-13T15:55:35.191Z,-2.70
2022-12-13T15:58:19.015Z,-2.70
2022-12-13T16:00:50.640Z,-2.80
2022-12-13T16:03:24.807Z,-2.80
2022-12-13T16:05:55.944Z,-2.80
2022-12-13T16:08:29.468Z,-2.80
2022-12-13T16:10:59.025Z,-2.80
2022-12-13T16:13:32.231Z,-2.90
2022-12-13T16:16:09.372Z,-2.90
2022-12-13T16:18:47.349Z,-2.80
2022-12-13T16:21:15.639Z,-2.70
2022-12-13T16:23:48.400Z,-2.80
2022-12-13T16:26:25.762Z,-2.80
2022-12-13T16:28:57.787Z,-2.80
2022-12-13T16:31:31.394Z,-2.80
2022-12-13T16:33:59.822Z,-2.80
2022-12-13T16:36:28.245Z,-2.80
2022-12-13T16:38:56.560Z,-2.90
2022-12-13T16:41:25.048Z,-2.90
2022-12-13T16:43:58.150Z,-3.00
2022-12-13T16:47:16.134Z,-3.00
2022-12-13T16:49:25.438Z,-3.10
2022-12-13T16:51:54.224Z,-3.00
2022-12-13T16:54:24.766Z,-3.00
2022-12-13T16:56:54.888Z,-2.90
2022-12-13T16:59:28.106Z,-2.90
2022-12-13T17:01:56.579Z,-2.90
2022-12-13T17:04:27.296Z,-3.00
2022-12-13T17:06:55.813Z,-3.00
2022-12-13T17:09:25.671Z,-3.10
2022-12-13T17:11:54.178Z,-3.10
2022-12-13T17:14:23.961Z,-3.10
2022-12-13T17:16:52.343Z,-3.10
2022-12-13T17:19:20.658Z,-3.10
2022-12-13T17:21:49.132Z,-3.10
2022-12-13T17:24:17.711Z,-3.00
2022-12-13T17:26:54.820Z,-3.00
2022-12-13T17:29:26.643Z,-3.00
2022-12-13T17:31:55.145Z,-3.00
2022-12-13T17:34:23.593Z,-3.00
2022-12-13T17:36:53.372Z,-3.00
2022-12-13T17:39:21.868Z,-3.00
2022-12-13T17:41:55.569Z,-2.90
2022-12-13T17:44:26.048Z,-2.90
2022-12-13T17:46:55.727Z,-2.90
2022-12-13T17:49:24.801Z,-2.90
2022-12-13T17:51:54.112Z,-2.90
2022-12-13T17:54:25.169Z,-2.90
2022-12-13T17:56:54.567Z,-3.00
2022-12-13T17:59:23.548Z,-3.00
2022-12-13T18:01:53.528Z,-3.00
2022-12-13T18:04:22.594Z,-3.00
2022-12-13T18:06:52.570Z,-3.00
2022-12-13T18:09:21.333Z,-3.00
2022-12-13T18:11:51.006Z,-3.10
2022-12-13T18:14:19.314Z,-3.00
2022-12-13T18:16:47.812Z,-3.00
2022-12-13T18:19:17.671Z,-3.00
2022-12-13T18:21:46.097Z,-3.00
2022-12-13T18:24:14.921Z,-3.00
2022-12-13T18:26:43.376Z,-3.00
2022-12-13T18:29:11.753Z,-2.90
2022-12-13T18:31:40.956Z,-2.90
2022-12-13T18:34:11.556Z,-3.00
2022-12-13T18:36:41.345Z,-2.90
2022-12-13T18:39:09.693Z,-2.90
2022-12-13T18:41:42.033Z,-2.80
2022-12-13T18:44:13.547Z,-2.80
2022-12-13T18:46:46.042Z,-2.90
2022-12-13T18:49:15.049Z,-3.00
2022-12-13T18:51:45.285Z,-3.00
2022-12-13T18:54:14.614Z,-3.00
2022-12-13T18:56:42.900Z,-3.00
2022-12-13T18:59:12.704Z,-3.10
2022-12-13T19:01:41.508Z,-3.00
2022-12-13T19:04:09.896Z,-3.00
2022-12-13T19:06:38.418Z,-3.00
2022-12-13T19:09:08.362Z,-2.90
2022-12-13T19:11:36.652Z,-3.00
2022-12-13T19:14:05.006Z,-3.00
2022-12-13T19:16:33.974Z,-3.00
2022-12-13T19:19:02.521Z,-3.00
2022-12-13T19:21:31.009Z,-3.00
2022-12-13T19:24:01.191Z,-3.00
2022-12-13T19:26:31.775Z,-3.10
2022-12-13T19:29:00.797Z,-3.10
2022-12-13T19:31:32.267Z,-3.10
2022-12-13T19:34:02.367Z,-3.00
2022-12-13T19:36:31.549Z,-3.00
2022-12-13T19:39:00.042Z,-3.10
2022-12-13T19:41:32.247Z,-3.00
2022-12-13T19:44:04.561Z,-3.00
2022-12-13T19:46:33.917Z,-3.10
2022-12-13T19:49:02.432Z,-3.00
2022-12-13T19:51:35.885Z,-3.10
2022-12-13T19:54:06.328Z,-3.10
2022-12-13T19:56:36.192Z,-3.00
2022-12-13T19:59:04.952Z,-3.00
2022-12-13T20:01:33.792Z,-3.00
2022-12-13T20:04:02.243Z,-3.00
2022-12-13T20:06:31.052Z,-3.00
2022-12-13T20:08:59.453Z,-3.00
2022-12-13T20:11:27.785Z,-3.00
2022-12-13T20:13:57.734Z,-3.00
2022-12-13T20:16:28.378Z,-3.00
2022-12-13T20:18:57.558Z,-3.00
2022-12-13T20:21:26.454Z,-2.90
2022-12-13T20:23:55.565Z,-2.90
2022-12-13T20:26:27.618Z,-3.00
2022-12-13T20:28:57.884Z,-2.90
2022-12-13T20:31:31.015Z,-2.90
2022-12-13T20:34:03.459Z,-2.90
2022-12-13T20:36:32.858Z,-2.90
2022-12-13T20:39:05.464Z,-2.90
2022-12-13T20:41:36.878Z,-2.90
2022-12-13T20:44:10.562Z,-2.80
2022-12-13T20:46:40.975Z,-2.80
2022-12-13T20:49:10.668Z,-2.80
2022-12-13T20:51:43.265Z,-2.90
2022-12-13T20:54:12.271Z,-2.80
2022-12-13T20:56:41.432Z,-2.90
2022-12-13T20:59:14.642Z,-2.90
2022-12-13T21:01:48.874Z,-2.80
2022-12-13T21:04:20.779Z,-2.80
2022-12-13T21:06:49.148Z,-2.80
2022-12-13T21:09:18.099Z,-2.80
2022-12-13T21:11:48.837Z,-2.70
2022-12-13T21:14:25.116Z,-2.70
2022-12-13T21:16:56.992Z,-2.90
2022-12-13T21:19:27.242Z,-2.90
2022-12-13T21:21:57.363Z,-2.90
2022-12-13T21:24:29.315Z,-2.90
2022-12-13T21:26:58.072Z,-2.90
2022-12-13T21:29:27.889Z,-3.00
2022-12-13T21:31:56.514Z,-2.90
2022-12-13T21:34:25.325Z,-2.90
2022-12-13T21:37:00.456Z,-2.90
2022-12-13T21:39:29.414Z,-2.90
2022-12-13T21:41:58.369Z,-3.00
2022-12-13T21:44:28.436Z,-2.90
2022-12-13T21:47:13.153Z,-3.00
2022-12-13T21:49:42.234Z,-2.90
2022-12-13T21:52:17.363Z,-2.90
2022-12-13T21:54:45.636Z,-2.90
2022-12-13T21:57:31.413Z,-3.00
2022-12-13T22:00:01.114Z,-3.00
2022-12-13T22:02:29.956Z,-3.00
2022-12-13T22:05:01.712Z,-3.00
2022-12-13T22:07:33.001Z,-3.00
2022-12-13T22:10:03.106Z,-2.90
2022-12-13T22:12:35.789Z,-2.90
2022-12-13T22:15:07.610Z,-2.90
2022-12-13T22:17:36.692Z,-2.90
2022-12-13T22:20:07.098Z,-2.90
2022-12-13T22:22:36.571Z,-2.80
2022-12-13T22:25:05.754Z,-2.80
2022-12-13T22:27:34.194Z,-2.80
2022-12-13T22:30:03.917Z,-2.80
2022-12-13T22:32:33.919Z,-2.80
2022-12-13T22:35:02.153Z,-2.80
2022-12-13T22:37:30.661Z,-2.80
2022-12-13T22:39:58.896Z,-2.90
2022-12-13T22:42:27.416Z,-2.70
2022-12-13T22:44:56.211Z,-2.90
2022-12-13T22:47:26.008Z,-2.90
2022-12-13T22:49:54.342Z,-2.80
2022-12-13T22:52:22.864Z,-2.80
2022-12-13T22:54:51.236Z,-2.80
2022-12-13T22:57:19.497Z,-2.70
2022-12-13T22:59:47.770Z,-2.90
2022-12-13T23:02:16.678Z,-2.80
2022-12-13T23:04:46.520Z,-2.80
2022-12-13T23:07:14.945Z,-2.80
2022-12-13T23:09:43.547Z,-2.80
2022-12-13T23:12:30.866Z,-2.80
2022-12-13T23:15:00.267Z,-2.80
2022-12-13T23:17:28.525Z,-2.80
2022-12-13T23:19:58.256Z,-2.70
2022-12-13T23:22:27.343Z,-2.60
2022-12-13T23:24:55.850Z,-2.60
2022-12-13T23:27:25.578Z,-2.60
2022-12-13T23:29:54.076Z,-2.70
2022-12-13T23:32:22.483Z,-2.70
2022-12-13T23:34:50.878Z,-2.70
2022-12-13T23:37:20.521Z,-2.70
2022-12-13T23:39:49.018Z,-2.70
2022-12-13T23:42:17.364Z,-2.70
2022-12-13T23:44:45.693Z,-2.60
2022-12-13T23:47:14.234Z,-2.60
2022-12-13T23:49:42.806Z,-2.60
2022-12-13T23:52:11.438Z,-2.60
2022-12-13T23:54:41.161Z,-2.60
2022-12-13T23:57:09.773Z,-2.40
2022-12-13T23:59:38.034Z,-2.60
